createdAt,value
2023-05-06T00:01:18.053Z,1.00
2023-05-06T00:03:44.987Z,1.17
2023-05-06T00:06:12.019Z,0.95
2023-05-06T00:08:38.831Z,1.10
2023-05-06T00:11:05.647Z,1.02
2023-05-06T00:13:32.407Z,0.95
2023-05-06T00:15:59.217Z,0.95
2023-05-06T00:18:26.123Z,1.00
2023-05-06T00:20:52.966Z,0.90
2023-05-06T00:23:19.799Z,0.95
2023-05-06T00:25:46.876Z,0.75
2023-05-06T00:28:13.714Z,0.93
2023-05-06T00:30:40.517Z,1.20
2023-05-06T00:33:08.033Z,1.10
2023-05-06T00:35:34.857Z,1.10
2023-05-06T00:38:10.689Z,1.00
2023-05-06T00:40:37.818Z,0.80
2023-05-06T00:43:05.052Z,0.88
2023-05-06T00:45:32.068Z,1.10
2023-05-06T00:48:00.208Z,0.70
2023-05-06T00:50:28.569Z,1.00
2023-05-06T00:52:58.287Z,0.93
2023-05-06T00:55:26.156Z,0.80
2023-05-06T00:57:54.063Z,0.73
2023-05-06T01:00:21.758Z,0.90
2023-05-06T01:02:48.930Z,0.70
2023-05-06T01:05:22.335Z,1.05
2023-05-06T01:08:15.678Z,1.00
2023-05-06T01:10:53.358Z,0.85
2023-05-06T01:13:48.721Z,0.68
2023-05-06T01:16:19.909Z,0.98
2023-05-06T01:18:50.261Z,0.57
2023-05-06T01:21:18.904Z,0.73
2023-05-06T01:23:52.747Z,0.90
2023-05-06T01:26:20.046Z,0.70
2023-05-06T01:28:46.968Z,0.57
2023-05-06T01:31:25.570Z,0.50
2023-05-06T01:33:52.400Z,0.80
2023-05-06T01:36:29.076Z,0.70
2023-05-06T01:39:09.628Z,0.70
2023-05-06T01:41:40.808Z,0.70
2023-05-06T01:44:11.713Z,0.70
2023-05-06T01:46:38.583Z,0.70
2023-05-06T01:49:10.520Z,0.50
2023-05-06T01:51:38.003Z,0.52
2023-05-06T01:54:05.077Z,0.60
2023-05-06T01:56:32.066Z,0.70
2023-05-06T01:58:59.853Z,0.80
2023-05-06T02:01:27.082Z,0.80
2023-05-06T02:03:54.120Z,0.63
2023-05-06T02:06:21.064Z,0.70
2023-05-06T02:08:48.771Z,0.75
2023-05-06T02:11:19.453Z,0.60
2023-05-06T02:13:48.651Z,0.60
2023-05-06T02:16:15.562Z,0.60
2023-05-06T02:18:42.478Z,0.50
2023-05-06T02:21:10.398Z,0.63
2023-05-06T02:23:37.360Z,0.80
2023-05-06T02:26:04.654Z,0.60
2023-05-06T02:28:33.205Z,0.60
2023-05-06T02:31:00.025Z,0.60
2023-05-06T02:33:26.894Z,0.50
2023-05-06T02:35:53.737Z,0.70
2023-05-06T02:38:21.959Z,0.60
2023-05-06T02:40:48.744Z,0.55
2023-05-06T02:43:15.637Z,0.35
2023-05-06T02:45:42.552Z,0.40
2023-05-06T02:48:09.361Z,0.47
2023-05-06T02:50:37.006Z,0.70
2023-05-06T02:53:03.854Z,0.60
2023-05-06T02:55:30.793Z,0.50
2023-05-06T02:57:57.583Z,0.80
2023-05-06T03:00:24.372Z,0.68
2023-05-06T03:02:51.266Z,0.50
2023-05-06T03:05:18.248Z,0.52
2023-05-06T03:07:45.092Z,0.70
2023-05-06T03:10:11.977Z,0.55
2023-05-06T03:12:39.016Z,0.60
2023-05-06T03:15:06.588Z,0.60
2023-05-06T03:17:33.433Z,0.50
2023-05-06T03:20:02.408Z,0.63
2023-05-06T03:22:30.678Z,0.70
2023-05-06T03:24:57.979Z,0.57
2023-05-06T03:27:27.275Z,0.63
2023-05-06T03:29:58.922Z,0.55
2023-05-06T03:32:25.857Z,0.50
2023-05-06T03:34:53.134Z,0.50
2023-05-06T03:37:21.922Z,0.50
2023-05-06T03:39:53.102Z,0.57
2023-05-06T03:42:22.733Z,0.50
2023-05-06T03:44:49.802Z,0.50
2023-05-06T03:47:17.727Z,0.57
2023-05-06T03:49:45.301Z,0.55
2023-05-06T03:52:12.652Z,0.88
2023-05-06T03:54:39.652Z,0.50
2023-05-06T03:57:07.605Z,0.70
2023-05-06T03:59:34.770Z,0.50
2023-05-06T04:02:03.384Z,0.70
2023-05-06T04:04:31.794Z,0.60
2023-05-06T04:06:58.645Z,0.70
2023-05-06T04:09:25.482Z,0.60
2023-05-06T04:11:53.297Z,0.50
2023-05-06T04:14:21.196Z,0.40
2023-05-06T04:16:48.759Z,0.80
2023-05-06T04:19:17.866Z,0.60
2023-05-06T04:21:45.827Z,0.60
2023-05-06T04:24:13.788Z,0.75
2023-05-06T04:26:41.260Z,0.60
2023-05-06T04:29:09.296Z,0.70
2023-05-06T04:31:43.492Z,0.52
2023-05-06T04:34:12.650Z,0.60
2023-05-06T04:36:40.708Z,0.70
2023-05-06T04:39:40.178Z,0.50
2023-05-06T04:42:07.915Z,0.60
2023-05-06T04:44:43.634Z,0.50
2023-05-06T04:47:12.180Z,0.50
2023-05-06T04:49:42.078Z,0.50
2023-05-06T04:52:09.364Z,0.50
2023-05-06T04:54:36.684Z,0.50
2023-05-06T04:57:04.724Z,0.60
2023-05-06T04:59:32.878Z,0.70
2023-05-06T05:02:01.765Z,0.60
2023-05-06T05:04:28.615Z,0.55
2023-05-06T05:06:55.786Z,0.60
2023-05-06T05:09:22.794Z,0.73
2023-05-06T05:11:50.576Z,0.60
2023-05-06T05:14:17.501Z,0.60
2023-05-06T05:16:44.729Z,0.40
2023-05-06T05:19:11.754Z,0.50
2023-05-06T05:21:39.564Z,0.50
2023-05-06T05:24:08.407Z,0.57
2023-05-06T05:26:35.989Z,0.50
2023-05-06T05:29:02.913Z,0.75
2023-05-06T05:31:31.705Z,0.60
2023-05-06T05:34:00.218Z,0.60
2023-05-06T05:36:27.951Z,0.68
2023-05-06T05:38:57.277Z,0.55
2023-05-06T05:41:26.826Z,0.50
2023-05-06T05:43:54.973Z,0.57
2023-05-06T05:46:22.211Z,0.70
2023-05-06T05:48:50.659Z,1.02
2023-05-06T05:51:20.725Z,0.70
2023-05-06T05:53:47.697Z,1.02
2023-05-06T05:56:15.375Z,1.33
2023-05-06T05:58:42.435Z,1.30
2023-05-06T06:01:09.501Z,1.20
2023-05-06T06:03:36.710Z,1.13
2023-05-06T06:06:05.528Z,1.23
2023-05-06T06:08:33.195Z,1.70
2023-05-06T06:11:01.979Z,1.58
2023-05-06T06:13:35.008Z,1.52
2023-05-06T06:16:01.994Z,1.50
2023-05-06T06:18:29.157Z,1.60
2023-05-06T06:20:56.118Z,1.42
2023-05-06T06:23:24.440Z,1.33
2023-05-06T06:25:51.308Z,1.10
2023-05-06T06:28:18.103Z,1.15
2023-05-06T06:30:45.622Z,1.25
2023-05-06T06:33:12.669Z,1.02
2023-05-06T06:35:40.276Z,0.90
2023-05-06T06:38:07.086Z,1.00
2023-05-06T06:40:33.908Z,1.08
2023-05-06T06:43:01.269Z,1.00
2023-05-06T06:45:57.392Z,1.02
2023-05-06T06:48:24.179Z,1.00
2023-05-06T06:50:51.108Z,0.90
2023-05-06T06:53:18.079Z,1.10
2023-05-06T06:55:45.863Z,1.13
2023-05-06T06:58:12.916Z,0.90
2023-05-06T07:00:39.692Z,1.02
2023-05-06T07:03:06.673Z,1.27
2023-05-06T07:05:33.688Z,1.23
2023-05-06T07:08:00.463Z,1.00
2023-05-06T07:10:27.392Z,0.90
2023-05-06T07:12:54.525Z,0.82
2023-05-06T07:15:21.817Z,0.98
2023-05-06T07:17:48.662Z,1.00
2023-05-06T07:20:16.257Z,1.20
2023-05-06T07:22:43.709Z,1.20
2023-05-06T07:25:10.976Z,1.23
2023-05-06T07:27:38.093Z,1.20
2023-05-06T07:30:05.433Z,1.25
2023-05-06T07:32:32.323Z,1.50
2023-05-06T07:34:59.157Z,1.20
2023-05-06T07:37:25.942Z,1.30
2023-05-06T07:39:52.800Z,1.10
2023-05-06T07:42:19.615Z,1.13
2023-05-06T07:44:46.374Z,1.10
2023-05-06T07:47:25.723Z,1.00
2023-05-06T07:49:52.628Z,1.20
2023-05-06T07:52:19.573Z,1.38
2023-05-06T07:54:46.333Z,1.20
2023-05-06T07:57:13.476Z,0.93
2023-05-06T07:59:40.264Z,1.10
2023-05-06T08:02:07.113Z,1.33
2023-05-06T08:04:33.961Z,1.23
2023-05-06T08:07:00.772Z,1.30
2023-05-06T08:09:27.550Z,1.13
2023-05-06T08:11:54.387Z,1.10
2023-05-06T08:14:21.342Z,0.90
2023-05-06T08:16:49.148Z,1.13
2023-05-06T08:19:16.065Z,1.25
2023-05-06T08:21:42.901Z,1.20
2023-05-06T08:24:10.968Z,1.15
2023-05-06T08:26:37.749Z,0.88
2023-05-06T08:29:04.535Z,0.95
2023-05-06T08:31:31.510Z,1.00
2023-05-06T08:33:58.305Z,0.90
2023-05-06T08:36:25.399Z,1.10
2023-05-06T08:38:52.182Z,1.00
2023-05-06T08:41:21.370Z,1.13
2023-05-06T08:43:49.854Z,1.15
2023-05-06T08:46:17.905Z,1.00
2023-05-06T08:48:45.754Z,1.00
2023-05-06T08:51:15.346Z,0.90
2023-05-06T08:53:48.574Z,1.00
2023-05-06T08:56:16.449Z,0.75
2023-05-06T08:58:48.543Z,0.70
2023-05-06T09:01:16.108Z,0.80
2023-05-06T09:03:44.220Z,0.60
2023-05-06T09:06:11.267Z,0.70
2023-05-06T09:08:38.094Z,0.65
2023-05-06T09:11:21.164Z,0.70
2023-05-06T09:13:48.085Z,0.70
2023-05-06T09:16:30.887Z,0.65
2023-05-06T09:18:58.739Z,0.60
2023-05-06T09:21:34.803Z,0.52
2023-05-06T09:24:02.603Z,0.60
2023-05-06T09:26:30.937Z,0.50
2023-05-06T09:28:58.922Z,0.47
2023-05-06T09:31:26.953Z,0.63
2023-05-06T09:33:55.647Z,0.50
2023-05-06T09:36:23.671Z,0.40
2023-05-06T09:38:51.047Z,0.30
2023-05-06T09:41:20.985Z,0.52
2023-05-06T09:43:49.268Z,0.50
2023-05-06T09:46:17.259Z,0.60
2023-05-06T09:48:46.026Z,0.45
2023-05-06T09:51:13.352Z,0.30
2023-05-06T09:53:40.659Z,0.40
2023-05-06T09:56:08.378Z,0.50
2023-05-06T09:58:35.877Z,0.47
2023-05-06T10:01:05.007Z,0.30
2023-05-06T10:03:33.183Z,0.20
2023-05-06T10:06:06.149Z,0.40
2023-05-06T10:08:35.085Z,0.47
2023-05-06T10:11:02.197Z,0.40
2023-05-06T10:13:30.085Z,0.28
2023-05-06T10:15:57.526Z,0.50
2023-05-06T10:18:31.221Z,0.30
2023-05-06T10:20:59.526Z,0.20
2023-05-06T10:23:35.377Z,0.15
2023-05-06T10:26:07.869Z,0.20
2023-05-06T10:28:42.572Z,0.20
2023-05-06T10:31:13.703Z,0.17
2023-05-06T10:33:43.265Z,0.40
2023-05-06T10:36:14.497Z,0.45
2023-05-06T10:38:43.912Z,0.40
2023-05-06T10:41:11.726Z,0.30
2023-05-06T10:43:43.307Z,0.38
2023-05-06T10:46:12.353Z,0.25
2023-05-06T10:48:59.927Z,0.30
2023-05-06T10:51:28.529Z,0.30
2023-05-06T10:54:09.335Z,0.30
2023-05-06T10:56:36.052Z,0.32
2023-05-06T10:59:12.973Z,0.40
2023-05-06T11:01:44.358Z,0.30
2023-05-06T11:04:13.962Z,0.22
2023-05-06T11:06:42.177Z,0.25
2023-05-06T11:09:22.115Z,0.30
2023-05-06T11:12:05.860Z,0.30
2023-05-06T11:14:38.587Z,0.30
2023-05-06T11:17:29.406Z,0.40
2023-05-06T11:20:22.455Z,0.30
2023-05-06T11:22:49.607Z,0.32
2023-05-06T11:25:39.120Z,0.28
2023-05-06T11:28:11.487Z,0.40
2023-05-06T11:30:41.900Z,0.40
2023-05-06T11:33:13.680Z,0.40
2023-05-06T11:35:40.464Z,0.30
2023-05-06T11:38:07.340Z,0.30
2023-05-06T11:40:34.147Z,0.38
2023-05-06T11:43:11.170Z,0.35
2023-05-06T11:45:56.155Z,0.32
2023-05-06T11:48:22.922Z,0.30
2023-05-06T11:50:50.638Z,0.20
2023-05-06T11:53:20.120Z,0.30
2023-05-06T11:55:48.141Z,0.30
2023-05-06T11:58:16.701Z,0.20
2023-05-06T12:00:52.823Z,0.50
2023-05-06T12:03:21.175Z,0.30
2023-05-06T12:05:49.234Z,0.30
2023-05-06T12:08:26.525Z,0.43
2023-05-06T12:11:01.194Z,0.40
2023-05-06T12:13:29.155Z,0.50
2023-05-06T12:15:58.318Z,0.32
2023-05-06T12:18:26.031Z,0.32
2023-05-06T12:21:05.981Z,0.20
2023-05-06T12:23:32.973Z,0.30
2023-05-06T12:26:05.433Z,0.22
2023-05-06T12:28:35.109Z,0.35
2023-05-06T12:31:22.210Z,0.20
2023-05-06T12:33:50.092Z,0.30
2023-05-06T12:36:18.001Z,0.30
2023-05-06T12:38:55.587Z,0.30
2023-05-06T12:41:24.780Z,0.32
2023-05-06T12:43:54.675Z,0.30
2023-05-06T12:46:21.712Z,0.20
2023-05-06T12:49:02.100Z,0.38
2023-05-06T12:51:30.767Z,0.30
2023-05-06T12:53:57.654Z,0.40
2023-05-06T12:56:24.629Z,0.30
2023-05-06T12:58:59.789Z,0.30
2023-05-06T13:01:26.890Z,0.50
2023-05-06T13:03:58.465Z,0.50
2023-05-06T13:06:25.428Z,0.45
2023-05-06T13:08:52.294Z,0.35
2023-05-06T13:11:19.200Z,0.50
2023-05-06T13:13:46.205Z,0.30
2023-05-06T13:16:13.159Z,0.38
2023-05-06T13:18:40.028Z,0.45
2023-05-06T13:21:06.921Z,0.30
2023-05-06T13:23:35.188Z,0.30
2023-05-06T13:26:05.786Z,0.47
2023-05-06T13:28:33.978Z,0.40
2023-05-06T13:31:00.979Z,0.40
2023-05-06T13:33:27.833Z,0.32
2023-05-06T13:35:54.701Z,0.40
2023-05-06T13:38:22.034Z,0.35
2023-05-06T13:40:53.104Z,0.30
2023-05-06T13:43:21.300Z,0.32
2023-05-06T13:45:48.109Z,0.45
2023-05-06T13:48:15.234Z,0.40
2023-05-06T13:50:42.909Z,0.47
2023-05-06T13:53:10.649Z,0.40
2023-05-06T13:55:38.061Z,0.30
2023-05-06T13:58:06.161Z,0.50
2023-05-06T14:00:33.991Z,0.50
2023-05-06T14:03:00.881Z,0.35
2023-05-06T14:05:27.944Z,0.28
2023-05-06T14:07:54.792Z,0.55
2023-05-06T14:10:21.659Z,0.20
2023-05-06T14:12:48.508Z,0.30
2023-05-06T14:15:15.620Z,0.40
2023-05-06T14:17:43.269Z,0.38
2023-05-06T14:20:10.714Z,0.40
2023-05-06T14:22:40.630Z,0.38
2023-05-06T14:25:08.582Z,0.30
2023-05-06T14:27:36.088Z,0.30
2023-05-06T14:30:08.156Z,0.60
2023-05-06T14:32:35.750Z,0.40
2023-05-06T14:35:02.650Z,0.43
2023-05-06T14:37:29.768Z,0.50
2023-05-06T14:39:57.699Z,0.40
2023-05-06T14:42:24.595Z,0.40
2023-05-06T14:44:51.424Z,0.30
2023-05-06T14:47:18.318Z,0.40
2023-05-06T14:49:45.152Z,0.43
2023-05-06T14:52:11.956Z,0.47
2023-05-06T14:54:42.472Z,0.38
2023-05-06T14:57:09.966Z,0.40
2023-05-06T14:59:37.291Z,0.40
2023-05-06T15:02:09.017Z,0.40
2023-05-06T15:04:36.890Z,0.40
2023-05-06T15:07:04.518Z,0.50
2023-05-06T15:09:31.463Z,0.50
2023-05-06T15:11:58.424Z,0.40
2023-05-06T15:14:25.443Z,0.45
2023-05-06T15:16:56.928Z,0.50
2023-05-06T15:19:24.292Z,0.60
2023-05-06T15:21:51.210Z,0.80
2023-05-06T15:24:18.035Z,0.60
2023-05-06T15:26:45.000Z,0.70
2023-05-06T15:29:12.015Z,0.45
2023-05-06T15:31:40.738Z,0.60
2023-05-06T15:34:09.066Z,0.32
2023-05-06T15:36:35.925Z,0.32
2023-05-06T15:39:03.297Z,0.45
2023-05-06T15:41:35.449Z,0.80
2023-05-06T15:44:05.887Z,0.50
2023-05-06T15:46:33.305Z,0.45
2023-05-06T15:51:30.896Z,0.35
2023-05-06T15:53:57.855Z,0.60
2023-05-06T15:56:26.921Z,0.57
2023-05-06T15:58:55.120Z,0.70
2023-05-06T16:01:31.559Z,0.70
2023-05-06T16:04:09.018Z,0.55
2023-05-06T16:06:35.972Z,0.50
2023-05-06T16:09:02.871Z,0.50
2023-05-06T16:11:29.741Z,0.50
2023-05-06T16:13:56.651Z,0.50
2023-05-06T16:16:23.579Z,0.40
2023-05-06T16:18:50.609Z,0.52
2023-05-06T16:21:17.371Z,0.65
2023-05-06T16:23:44.194Z,0.60
2023-05-06T16:26:11.192Z,0.57
2023-05-06T16:28:39.946Z,0.55
2023-05-06T16:31:07.169Z,0.70
2023-05-06T16:33:34.008Z,0.60
2023-05-06T16:36:00.787Z,0.50
2023-05-06T16:38:27.685Z,0.50
2023-05-06T16:40:54.590Z,0.55
2023-05-06T16:43:21.529Z,0.50
2023-05-06T16:45:48.479Z,0.40
2023-05-06T16:48:16.010Z,0.50
2023-05-06T16:50:42.882Z,0.55
2023-05-06T16:53:10.278Z,0.65
2023-05-06T16:55:37.177Z,0.60
2023-05-06T16:58:04.388Z,0.70
2023-05-06T17:00:32.020Z,0.52
2023-05-06T17:02:59.099Z,0.70
2023-05-06T17:05:26.326Z,0.55
2023-05-06T17:07:53.131Z,0.73
2023-05-06T17:10:20.834Z,0.50
2023-05-06T17:12:48.015Z,0.57
2023-05-06T17:15:14.857Z,0.57
2023-05-06T17:17:41.825Z,0.60
2023-05-06T17:20:09.314Z,0.52
2023-05-06T17:22:36.383Z,0.70
2023-05-06T17:25:04.361Z,0.60
2023-05-06T17:27:31.325Z,0.50
2023-05-06T17:30:00.537Z,0.60
2023-05-06T17:32:27.486Z,0.60
2023-05-06T17:34:54.448Z,0.63
2023-05-06T17:37:21.262Z,0.65
2023-05-06T17:39:48.103Z,0.65
2023-05-06T17:42:14.880Z,0.50
2023-05-06T17:44:42.849Z,0.63
2023-05-06T17:47:10.427Z,2.13
2023-05-06T17:49:37.261Z,3.45
2023-05-06T17:52:04.203Z,2.80
2023-05-06T17:54:34.844Z,3.40
2023-05-06T17:57:03.314Z,2.60
2023-05-06T17:59:30.165Z,2.17
2023-05-06T18:01:57.293Z,3.08
2023-05-06T18:04:24.310Z,2.20
2023-05-06T18:06:51.110Z,1.55
2023-05-06T18:09:17.969Z,1.45
2023-05-06T18:11:45.003Z,1.40
2023-05-06T18:14:12.339Z,1.10
2023-05-06T18:16:39.401Z,0.80
2023-05-06T18:19:06.375Z,0.88
2023-05-06T18:21:35.081Z,0.80
2023-05-06T18:24:10.706Z,0.77
2023-05-06T18:26:45.373Z,0.60
2023-05-06T18:29:12.965Z,0.70
2023-05-06T18:31:39.905Z,0.60
2023-05-06T18:34:06.756Z,0.80
2023-05-06T18:36:35.273Z,0.57
2023-05-06T18:39:05.960Z,0.88
2023-05-06T18:41:32.966Z,0.88
2023-05-06T18:43:59.789Z,1.10
2023-05-06T18:46:27.598Z,0.95
2023-05-06T18:48:55.992Z,0.90
2023-05-06T18:51:22.903Z,1.15
2023-05-06T18:53:49.808Z,1.35
2023-05-06T18:56:17.088Z,1.10
2023-05-06T18:58:44.113Z,1.20
2023-05-06T19:01:11.596Z,1.30
2023-05-06T19:03:38.842Z,1.45
2023-05-06T19:06:10.678Z,1.30
2023-05-06T19:08:37.840Z,1.10
2023-05-06T19:11:04.907Z,1.20
2023-05-06T19:13:31.937Z,1.40
2023-05-06T19:15:58.877Z,1.70
2023-05-06T19:18:25.688Z,1.33
2023-05-06T19:20:53.474Z,1.15
2023-05-06T19:23:21.633Z,1.10
2023-05-06T19:25:48.726Z,1.10
2023-05-06T19:28:15.523Z,0.75
2023-05-06T19:30:42.480Z,0.90
2023-05-06T19:33:09.865Z,0.88
2023-05-06T19:35:41.066Z,0.65
2023-05-06T19:38:09.164Z,0.55
2023-05-06T19:40:36.121Z,0.65
2023-05-06T19:43:05.820Z,0.70
2023-05-06T19:45:33.799Z,0.70
2023-05-06T19:48:01.711Z,0.90
2023-05-06T19:50:28.640Z,0.70
2023-05-06T19:52:55.563Z,0.70
2023-05-06T19:55:22.741Z,0.50
2023-05-06T19:57:50.632Z,0.80
2023-05-06T20:00:20.103Z,0.90
2023-05-06T20:02:47.022Z,0.90
2023-05-06T20:05:14.163Z,1.00
2023-05-06T20:07:41.388Z,1.08
2023-05-06T20:10:09.981Z,1.00
2023-05-06T20:12:36.847Z,1.30
2023-05-06T20:15:04.128Z,1.27
2023-05-06T20:17:31.155Z,1.10
2023-05-06T20:19:58.606Z,1.20
2023-05-06T20:22:26.145Z,1.13
2023-05-06T20:24:53.249Z,1.20
2023-05-06T20:27:23.211Z,1.08
2023-05-06T20:29:51.636Z,1.05
2023-05-06T20:32:18.492Z,1.10
2023-05-06T20:34:45.351Z,1.17
2023-05-06T20:37:12.180Z,1.00
2023-05-06T20:39:39.005Z,1.10
2023-05-06T20:42:05.914Z,1.10
2023-05-06T20:44:32.818Z,1.00
2023-05-06T20:46:59.585Z,1.10
2023-05-06T20:49:26.362Z,0.90
2023-05-06T20:51:53.350Z,0.80
2023-05-06T20:54:20.126Z,0.90
2023-05-06T20:56:46.971Z,0.60
2023-05-06T20:59:13.804Z,0.88
2023-05-06T21:01:41.309Z,0.90
2023-05-06T21:04:08.187Z,0.90
2023-05-06T21:06:34.977Z,1.10
2023-05-06T21:09:01.760Z,0.85
2023-05-06T21:11:28.964Z,1.30
2023-05-06T21:13:56.118Z,1.75
2023-05-06T21:16:23.007Z,1.40
2023-05-06T21:18:49.851Z,1.50
2023-05-06T21:21:17.002Z,1.20
2023-05-06T21:23:43.824Z,1.20
2023-05-06T21:26:12.560Z,1.23
2023-05-06T21:28:39.323Z,1.25
2023-05-06T21:31:06.099Z,1.05
2023-05-06T21:33:32.902Z,1.40
2023-05-06T21:36:00.010Z,1.20
2023-05-06T21:38:27.848Z,1.20
2023-05-06T21:40:55.745Z,1.10
2023-05-06T21:43:22.629Z,1.30
2023-05-06T21:45:49.542Z,1.20
2023-05-06T21:48:16.729Z,1.52
2023-05-06T21:50:43.585Z,1.10
2023-05-06T21:53:10.538Z,1.10
2023-05-06T21:55:37.323Z,1.30
2023-05-06T21:58:04.257Z,1.20
2023-05-06T22:00:31.035Z,1.20
2023-05-06T22:02:58.651Z,0.90
2023-05-06T22:05:25.631Z,1.00
2023-05-06T22:07:52.459Z,1.10
2023-05-06T22:10:19.476Z,1.00
2023-05-06T22:12:46.350Z,1.20
2023-05-06T22:15:14.764Z,1.38
2023-05-06T22:17:41.661Z,1.15
2023-05-06T22:20:11.028Z,1.23
2023-05-06T22:22:38.392Z,1.23
2023-05-06T22:25:05.818Z,1.10
2023-05-06T22:27:33.016Z,1.20
2023-05-06T22:29:59.920Z,1.05
2023-05-06T22:32:26.809Z,1.10
2023-05-06T22:34:53.669Z,1.10
2023-05-06T22:37:20.760Z,1.00
2023-05-06T22:39:47.705Z,0.90
2023-05-06T22:42:14.481Z,1.00
2023-05-06T22:44:41.303Z,0.98
2023-05-06T22:47:08.087Z,0.90
2023-05-06T22:49:36.410Z,1.08
2023-05-06T22:52:03.448Z,1.23
2023-05-06T22:54:30.326Z,1.30
2023-05-06T22:56:57.231Z,1.10
2023-05-06T22:59:24.120Z,1.00
2023-05-06T23:01:51.162Z,1.05
2023-05-06T23:04:18.424Z,1.27
2023-05-06T23:06:45.204Z,0.98
2023-05-06T23:09:12.511Z,1.20
2023-05-06T23:11:39.688Z,1.20
2023-05-06T23:14:06.786Z,1.10
2023-05-06T23:16:33.958Z,1.38
2023-05-06T23:19:00.864Z,1.35
2023-05-06T23:21:27.646Z,1.10
2023-05-06T23:23:55.644Z,1.20
2023-05-06T23:26:22.526Z,1.30
2023-05-06T23:28:49.300Z,1.20
2023-05-06T23:31:16.175Z,1.30
2023-05-06T23:33:43.009Z,1.20
2023-05-06T23:36:09.914Z,1.05
2023-05-06T23:38:36.678Z,1.17
2023-05-06T23:41:03.894Z,1.40
2023-05-06T23:43:30.939Z,1.33
2023-05-06T23:45:57.823Z,1.35
2023-05-06T23:48:24.669Z,1.25
2023-05-06T23:50:51.569Z,1.10
2023-05-06T23:53:18.383Z,1.38
2023-05-06T23:55:45.287Z,1.35
2023-05-06T23:58:12.104Z,1.30
